Etusivu
METAR-TAF:

METAR-TAF

Lentoasemat :

Cuneo, Italia

Leveyspiiri: 44-32-47N, Pituuspiiri: 007-37-20E, korkeus merenpinnasta: 386 m

Tämänhetkinen sää

Tämä raportti tehtiin 8 tuntia ja 36 minuuttia sitten, kello 18.50 UTC
Tuuli 3 kn lännestä
Lämpötila 13°C
Kosteus 88%
Ilmanpaine 1023 hPa
Näkyvyys 10 km tai enemmän
ei pilviä alle 1500 m:ssä eikä cumulonimbus-pilviä

METAR: LIMZ 201850Z 26003KT CAVOK 13/11 Q1023

Aika: 05:26 (03:26 UTC)

Sääennuste

Tämä raportti tehtiin 10 tuntia ja 26 minuuttia sitten, kello 17.00 UTC
Ennuste voimassa 20. päivästä klo 18 UTC - 21. päivään klo 18 UTC
Tuuli 5 kn eri suunnista
Näkyvyys 10 km tai enemmän
ei pilviä alle 1500 m:ssä eikä cumulonimbus-pilviä

TAF: LIMZ 201700Z 2018/2118 VRB05KT CAVOK

Säähavainnot ja -ennusteet yli 4000 lentoasemalta (METAR- ja TAF-raportit).

Käytössä olevat sääasemat on merkitty karttaan keltaisilla ja punaisilla pisteillä.

Aseta hiiri pisteen päälle nähdäksesi sääaseman nimen.

Klikkaa sitten nähdäksesi säähavainnot ja -ennusteet.

Kartan vaihtaminen: klikkaa mustalla rastilla varustettuja vihreitä pisteitä, niin voit zoomata sisään; viivalla varustettua vihreää pistettä, niin voit zoomata ulos tai vihreitä nuolia, niin pääset viereisille kartoille.


METAR-TAF: